Time;durP1;ratioP1;P1;durP2;ratioP2;P2;SDS_P1;SDS_P2;PMS_P1;PMS_P2;Temp;Humidity;BMP_temperature;BMP_pressure;BME280_temperature;BME280_humidity;BME280_pressure;Samples;Min_cycle;Max_cycle;Signal;HPM_P1;HPM_P2
2022/04/12 00:00:19;;;;;;;0.20;0.20;;;9.60;99.90;;;10.18;65.16;100363.06;5011241;28;21091;-72
2022/04/12 00:02:46;;;;;;;0.30;0.30;;;9.60;99.90;;;10.14;65.25;100365.09;5037497;28;20664;-72
2022/04/12 00:05:13;;;;;;;0.63;0.63;;;9.60;99.90;;;10.16;65.42;100361.53;5050788;28;20592;-72
2022/04/12 00:07:58;;;;;;;0.30;0.20;;;9.60;99.90;;;10.11;66.60;100359.28;5042479;28;20624;-72
2022/04/12 00:10:27;;;;;;;0.30;0.30;;;9.60;99.90;;;10.10;66.47;100363.66;5053558;28;20639;-68
2022/04/12 00:12:56;;;;;;;0.20;0.20;;;9.60;99.90;;;10.09;66.52;100359.34;5060688;23;20703;-70
2022/04/12 00:15:23;;;;;;;0.30;0.30;;;9.60;99.90;;;10.04;66.55;100355.41;5030509;28;20699;-71
2022/04/12 00:20:37;;;;;;;0.20;0.20;;;9.60;99.90;;;10.02;66.31;100357.31;5028498;28;20588;-72
2022/04/12 00:23:07;;;;;;;0.40;0.40;;;9.50;99.90;;;10.01;66.65;100353.88;5002233;28;20695;-73
2022/04/12 00:25:34;;;;;;;0.20;0.20;;;9.50;99.90;;;9.78;67.85;100353.88;5013715;28;20940;-72
2022/04/12 00:28:01;;;;;;;0.20;0.20;;;9.50;99.90;;;9.87;67.20;100355.81;4994319;28;20641;-71
2022/04/12 00:30:28;;;;;;;0.30;0.30;;;9.40;99.90;;;9.91;66.58;100347.69;5031079;28;20732;-71
2022/04/12 00:32:56;;;;;;;0.20;0.20;;;9.50;99.90;;;9.84;66.55;100343.00;5024655;28;21111;-72
2022/04/12 00:35:25;;;;;;;0.30;0.30;;;9.40;99.90;;;9.88;66.62;100349.69;4998975;28;20622;-72
2022/04/12 00:37:53;;;;;;;0.20;0.20;;;9.40;99.90;;;9.89;66.78;100348.72;5015537;28;20626;-71
2022/04/12 00:40:24;;;;;;;0.30;0.30;;;9.40;99.90;;;9.72;67.63;100349.13;5030467;28;20632;-72
2022/04/12 00:42:53;;;;;;;4.33;0.73;;;9.40;99.90;;;9.77;67.68;100347.03;5025848;28;20659;-72
2022/04/12 00:45:21;;;;;;;0.20;0.20;;;9.30;99.90;;;9.76;67.38;100351.41;5014451;28;20724;-72
2022/04/12 00:47:48;;;;;;;0.30;0.30;;;9.30;99.90;;;9.80;67.74;100349.41;4996147;28;21082;-72
2022/04/12 00:50:15;;;;;;;0.30;0.30;;;9.30;99.90;;;9.78;67.74;100344.31;5010711;28;20751;-70
2022/04/12 00:52:48;;;;;;;0.30;0.30;;;9.30;99.90;;;9.70;68.76;100345.81;4997294;28;20641;-69
2022/04/12 00:55:16;;;;;;;0.30;0.30;;;9.20;99.90;;;9.73;68.27;100350.81;4986874;28;20628;-72
2022/04/12 00:57:44;;;;;;;0.20;0.20;;;9.20;99.90;;;9.55;68.23;100337.34;5021604;28;20766;-72
2022/04/12 01:00:13;;;;;;;0.20;0.20;;;9.10;99.90;;;9.56;68.55;100343.38;5013112;28;20717;-72
2022/04/12 01:02:40;;;;;;;0.30;0.30;;;9.00;99.90;;;9.52;68.73;100339.34;5012328;28;21253;-72
2022/04/12 01:05:08;;;;;;;0.20;0.20;;;9.00;99.90;;;9.61;68.62;100339.47;4996380;28;20606;-72
2022/04/12 01:07:36;;;;;;;0.20;0.20;;;9.10;99.90;;;9.55;68.83;100347.75;5007556;28;20695;-72
2022/04/12 01:10:05;;;;;;;0.20;0.20;;;9.10;99.90;;;9.58;67.97;100347.53;4995697;28;20748;-72
2022/04/12 01:12:38;;;;;;;0.20;0.20;;;9.10;99.90;;;9.60;68.17;100339.59;5013645;28;20619;-71
2022/04/12 01:15:23;;;;;;;0.20;0.20;;;9.10;99.90;;;9.61;68.38;100333.44;5031898;28;20727;-72
2022/04/12 01:17:52;;;;;;;0.20;0.20;;;9.10;99.90;;;9.62;68.65;100342.94;5006029;28;20613;-73
2022/04/12 01:20:24;;;;;;;0.20;0.20;;;9.10;99.90;;;9.63;68.43;100342.81;5021469;28;21132;-72
2022/04/12 01:23:09;;;;;;;0.20;0.20;;;9.10;99.90;;;9.61;68.63;100342.09;5005869;28;21255;-73
2022/04/12 01:25:38;;;;;;;0.63;0.63;;;9.10;99.90;;;9.62;68.50;100335.94;5025700;28;20620;-72
2022/04/12 01:28:07;;;;;;;0.30;0.30;;;9.10;99.90;;;9.51;69.03;100332.44;4995939;28;21041;-72
2022/04/12 01:30:34;;;;;;;0.20;0.20;;;9.10;99.90;;;9.51;69.26;100324.63;5001599;28;20674;-72
2022/04/12 01:33:02;;;;;;;0.30;0.30;;;9.00;99.90;;;9.56;69.40;100330.34;4995431;28;20644;-74
2022/04/12 01:35:29;;;;;;;0.20;0.20;;;9.10;99.90;;;9.52;69.27;100321.91;4993739;28;21251;-72
2022/04/12 01:37:56;;;;;;;0.20;0.20;;;9.10;99.90;;;9.56;69.31;100325.94;5012629;28;20637;-72
2022/04/12 01:40:23;;;;;;;0.20;0.20;;;9.10;99.90;;;9.51;69.06;100329.84;5005225;28;20637;-72
2022/04/12 01:42:52;;;;;;;0.20;0.20;;;9.00;99.90;;;9.48;68.87;100330.06;5006634;28;21115;-72
2022/04/12 01:45:21;;;;;;;0.20;0.20;;;9.00;99.90;;;9.49;68.95;100331.72;5014497;28;20620;-71
2022/04/12 01:47:48;;;;;;;0.20;0.20;;;9.00;99.90;;;9.49;69.33;100322.16;5008716;28;20640;-73
2022/04/12 01:50:15;;;;;;;0.50;0.50;;;9.00;99.90;;;9.46;69.42;100321.53;5012850;28;21029;-72
2022/04/12 01:52:42;;;;;;;0.60;0.60;;;9.00;99.90;;;9.44;69.12;100324.25;5028443;28;21016;-69
2022/04/12 01:55:10;;;;;;;0.20;0.20;;;9.00;99.90;;;9.44;69.87;100326.84;4981308;28;20635;-72
2022/04/12 01:57:38;;;;;;;0.20;0.20;;;8.90;99.90;;;9.45;69.38;100325.94;5011613;28;20760;-72
2022/04/12 02:00:09;;;;;;;0.20;0.20;;;9.00;99.90;;;9.42;69.92;100320.09;5018090;28;20655;-72
2022/04/12 02:02:35;;;;;;;0.20;0.20;;;8.90;99.90;;;9.45;69.58;100319.88;4997591;28;20653;-72
2022/04/12 02:05:03;;;;;;;0.37;0.37;;;9.00;99.90;;;9.41;69.92;100319.28;5010734;28;21212;-72
2022/04/12 02:07:30;;;;;;;0.30;0.30;;;9.00;99.90;;;9.42;69.76;100318.31;5012443;28;20623;-72
2022/04/12 02:09:57;;;;;;;0.20;0.20;;;8.90;99.90;;;9.46;69.54;100326.72;5012042;28;20669;-72
2022/04/12 02:12:24;;;;;;;0.30;0.30;;;9.00;99.90;;;9.48;70.21;100330.88;5006171;28;20739;-72
2022/04/12 02:14:53;;;;;;;0.20;0.20;;;9.00;99.90;;;9.47;69.77;100320.59;5018967;28;20633;-72
2022/04/12 02:17:20;;;;;;;0.20;0.20;;;9.00;99.90;;;9.48;69.84;100330.88;5014413;28;20720;-69
2022/04/12 02:19:48;;;;;;;0.20;0.20;;;9.00;99.90;;;9.49;69.93;100331.72;5026963;28;20651;-72
2022/04/12 02:22:15;;;;;;;0.20;0.20;;;9.00;99.90;;;9.45;69.87;100325.09;5018744;28;20648;-72
2022/04/12 02:24:41;;;;;;;0.77;0.70;;;9.00;99.90;;;9.46;70.43;100326.72;5031480;28;20643;-73
2022/04/12 02:27:08;;;;;;;0.20;0.20;;;9.00;99.90;;;9.47;70.19;100321.44;5007890;28;20633;-73
2022/04/12 02:29:35;;;;;;;0.20;0.20;;;9.00;99.90;;;9.41;70.30;100323.66;5018726;28;20670;-73
2022/04/12 02:32:03;;;;;;;0.20;0.20;;;9.00;99.90;;;9.39;71.06;100316.75;4993658;28;20613;-72
2022/04/12 02:34:30;;;;;;;0.20;0.20;;;8.90;99.90;;;9.45;70.72;100322.47;4993957;28;21229;-73
2022/04/12 02:36:57;;;;;;;1.80;1.17;;;9.00;99.90;;;9.36;71.40;100317.00;5015431;28;20621;-73
2022/04/12 02:39:24;;;;;;;0.20;0.20;;;8.90;99.90;;;9.37;71.67;100317.81;5014164;28;20695;-69
2022/04/12 02:41:51;;;;;;;2.93;0.70;;;8.90;99.90;;;9.35;72.03;100319.69;5020950;28;20615;-72
2022/04/12 02:44:18;;;;;;;0.97;0.97;;;8.90;99.90;;;9.38;71.59;100315.13;5009282;28;20653;-72
2022/04/12 02:46:45;;;;;;;0.30;0.30;;;8.90;99.90;;;9.32;72.26;100325.13;4993062;28;20624;-73
2022/04/12 02:49:11;;;;;;;0.20;0.20;;;8.90;99.90;;;9.27;72.75;100322.84;4997796;28;20669;-72
2022/04/12 02:51:39;;;;;;;0.20;0.20;;;8.80;99.90;;;9.30;72.94;100327.03;4982645;28;21257;-71
2022/04/12 02:54:06;;;;;;;0.20;0.20;;;8.80;99.90;;;9.34;72.77;100328.47;4993206;28;20660;-72
2022/04/12 02:56:33;;;;;;;0.20;0.20;;;8.90;99.90;;;9.34;72.40;100326.69;4993158;28;21033;-72
2022/04/12 02:58:59;;;;;;;0.40;0.40;;;8.90;99.90;;;9.33;71.57;100313.75;4998710;28;21016;-73
2022/04/12 03:01:26;;;;;;;0.20;0.20;;;8.90;99.90;;;9.29;71.91;100307.97;5013269;28;20625;-68
2022/04/12 03:03:53;;;;;;;0.20;0.20;;;8.90;99.90;;;9.28;72.32;100310.69;5028352;28;21058;-73
2022/04/12 03:06:20;;;;;;;0.50;0.30;;;8.80;99.90;;;9.26;72.14;100304.75;5002274;28;20673;-73
2022/04/12 03:08:47;;;;;;;0.43;0.43;;;8.80;99.90;;;9.23;72.80;100305.78;5001165;28;20633;-73
2022/04/12 03:11:14;;;;;;;0.20;0.20;;;8.80;99.90;;;9.22;72.79;100305.91;4994068;28;20629;-73
2022/04/12 03:16:23;;;;;;;0.20;0.20;;;8.70;99.90;;;9.17;73.48;100305.41;5047408;23;20685;-73
2022/04/12 03:18:50;;;;;;;0.20;0.20;;;8.70;99.90;;;9.19;73.39;100308.72;4992650;28;20648;-73
2022/04/12 03:21:17;;;;;;;0.77;0.77;;;8.70;99.90;;;9.22;73.52;100311.13;5011257;28;20731;-73
2022/04/12 03:23:43;;;;;;;0.20;0.20;;;8.70;99.90;;;9.15;73.42;100317.69;5008952;28;20649;-73
2022/04/12 03:26:10;;;;;;;0.20;0.20;;;8.70;99.90;;;9.16;73.15;100309.75;5012908;28;20625;-72
2022/04/12 03:28:37;;;;;;;0.20;0.20;;;8.70;99.90;;;9.11;73.49;100311.03;5004987;28;20673;-72
2022/04/12 03:31:04;;;;;;;2.80;2.67;;;8.70;99.90;;;9.07;73.95;100307.81;5001687;28;20669;-73
2022/04/12 03:33:31;;;;;;;0.20;0.20;;;8.60;99.90;;;9.03;73.49;100308.97;5004164;28;20661;-72
2022/04/12 03:35:58;;;;;;;0.20;0.20;;;8.60;99.90;;;9.04;73.16;100305.44;4996262;28;20629;-73
2022/04/12 03:38:25;;;;;;;0.20;0.20;;;8.60;99.90;;;9.03;72.95;100305.56;5009876;28;20737;-73
2022/04/12 03:40:52;;;;;;;0.20;0.20;;;8.60;99.90;;;9.00;72.36;100311.81;5010168;28;20625;-72
2022/04/12 03:43:19;;;;;;;0.20;0.20;;;8.50;99.90;;;8.99;73.32;100314.50;5009201;28;20643;-73
2022/04/12 03:45:46;;;;;;;0.30;0.30;;;8.60;99.90;;;8.98;73.17;100307.63;5011625;28;20618;-72
2022/04/12 03:48:13;;;;;;;0.70;0.70;;;8.50;99.90;;;8.97;72.94;100314.59;5006043;28;20681;-73
2022/04/12 03:50:40;;;;;;;0.20;0.20;;;8.50;99.90;;;8.95;73.29;100307.84;5009219;28;20660;-73
2022/04/12 03:53:08;;;;;;;0.20;0.20;;;8.50;99.90;;;8.95;72.95;100308.69;5012572;28;20648;-72
2022/04/12 03:55:35;;;;;;;0.20;0.20;;;8.50;99.90;;;8.94;73.38;100314.84;5021688;28;20692;-73
2022/04/12 03:58:05;;;;;;;0.20;0.20;;;8.50;99.90;;;8.92;73.98;100311.47;5006939;28;21341;-73
2022/04/12 04:00:33;;;;;;;0.20;0.20;;;8.50;99.90;;;8.88;73.88;100304.03;5008126;28;20650;-73
2022/04/12 04:03:00;;;;;;;1.30;1.07;;;8.50;99.90;;;8.88;72.80;100302.22;4987403;28;21067;-73
2022/04/12 04:05:28;;;;;;;0.30;0.30;;;8.40;99.90;;;8.83;73.19;100298.31;4991232;28;20946;-73
2022/04/12 04:07:55;;;;;;;0.20;0.20;;;8.40;99.90;;;8.90;73.63;100292.56;4996200;28;20685;-72
2022/04/12 04:10:21;;;;;;;2.13;1.90;;;8.50;99.90;;;8.87;74.18;100297.97;4999556;28;20659;-73
2022/04/12 04:12:48;;;;;;;0.20;0.20;;;8.40;99.90;;;8.84;74.78;100305.19;5004599;28;20653;-73
2022/04/12 04:15:16;;;;;;;0.40;0.40;;;8.50;99.90;;;8.89;74.11;100311.72;4992255;28;20654;-72
2022/04/12 04:17:47;;;;;;;0.40;0.40;;;8.50;99.90;;;8.90;74.42;100320.38;4989324;28;20722;-73
2022/04/12 04:20:17;;;;;;;0.20;0.20;;;8.50;99.90;;;8.88;73.71;100317.84;5005263;28;21151;-72
2022/04/12 04:22:44;;;;;;;0.30;0.30;;;8.50;99.90;;;8.88;73.49;100314.44;5003393;28;21229;-70
2022/04/12 04:25:15;;;;;;;0.20;0.20;;;8.50;99.90;;;8.84;73.05;100315.59;4992332;28;20642;-72
2022/04/12 04:27:43;;;;;;;0.57;0.57;;;8.40;99.90;;;8.79;73.58;100325.47;4994638;28;20622;-73
2022/04/12 04:30:11;;;;;;;0.20;0.20;;;8.30;99.90;;;8.81;72.92;100327.03;5007945;28;20662;-73
2022/04/12 04:32:39;;;;;;;0.20;0.20;;;8.40;99.90;;;8.83;72.20;100324.31;5008165;28;20657;-73
2022/04/12 04:35:07;;;;;;;0.20;0.20;;;8.40;99.90;;;8.73;72.33;100316.31;5001356;28;20633;-72
2022/04/12 04:37:45;;;;;;;0.20;0.20;;;8.30;99.90;;;8.69;72.75;100314.06;4997680;28;20735;-73
2022/04/12 04:40:17;;;;;;;0.30;0.30;;;8.30;99.90;;;8.64;72.13;100316.97;4999851;28;20621;-73
2022/04/12 04:42:45;;;;;;;0.20;0.20;;;8.30;99.90;;;8.63;73.40;100317.88;4999515;28;20694;-72
2022/04/12 04:45:14;;;;;;;0.20;0.20;;;8.20;99.90;;;8.67;73.72;100316.72;5003853;28;20644;-73
2022/04/12 04:47:57;;;;;;;0.60;0.60;;;8.20;99.90;;;8.72;73.19;100317.25;5007073;28;20630;-73
2022/04/12 04:50:27;;;;;;;0.30;0.30;;;8.30;99.90;;;8.73;73.53;100321.50;4991332;28;21254;-71
2022/04/12 04:52:54;;;;;;;0.20;0.20;;;8.30;99.90;;;8.73;73.04;100321.50;5007161;28;20648;-74
2022/04/12 04:55:21;;;;;;;0.20;0.20;;;8.40;99.90;;;8.81;73.09;100329.63;5019182;28;20629;-74
2022/04/12 04:57:53;;;;;;;0.20;0.20;;;8.40;99.90;;;8.85;72.08;100341.50;5009071;28;20633;-73
2022/04/12 05:00:22;;;;;;;0.70;0.70;;;8.40;99.90;;;8.90;70.58;100331.56;4998320;28;20595;-73
2022/04/12 05:02:50;;;;;;;0.30;0.30;;;8.50;99.90;;;8.91;70.56;100333.25;5011129;28;20668;-73
2022/04/12 05:05:18;;;;;;;0.20;0.20;;;8.50;99.90;;;8.94;70.33;100327.00;4988302;28;20733;-70
2022/04/12 05:07:51;;;;;;;0.20;0.20;;;8.60;99.90;;;8.99;70.15;100341.34;5007256;28;20744;-73
2022/04/12 05:10:23;;;;;;;0.20;0.20;;;8.60;99.90;;;9.03;69.56;100335.00;5007673;28;20664;-73
2022/04/12 05:12:50;;;;;;;0.30;0.30;;;8.70;99.90;;;9.07;68.88;100339.03;4996131;28;20654;-73
2022/04/12 05:15:18;;;;;;;0.20;0.20;;;8.70;99.90;;;9.03;69.57;100335.00;5006892;28;20667;-73
2022/04/12 05:17:50;;;;;;;0.20;0.20;;;8.70;99.90;;;9.14;69.31;100339.44;4993797;28;21015;-72
2022/04/12 05:20:22;;;;;;;0.20;0.20;;;8.80;99.90;;;9.22;69.45;100343.16;5017691;28;20800;-73
2022/04/12 05:22:49;;;;;;;0.20;0.20;;;8.90;99.90;;;9.29;68.95;100336.59;4981625;28;20664;-73
2022/04/12 05:25:16;;;;;;;0.20;0.20;;;8.90;99.90;;;9.38;68.80;100346.34;5006115;28;20994;-73
2022/04/12 05:27:44;;;;;;;0.30;0.30;;;9.10;99.90;;;9.47;68.85;100338.81;5015910;28;21020;-73
2022/04/12 05:30:13;;;;;;;0.20;0.20;;;9.20;99.90;;;9.58;68.42;100339.72;5023976;28;21228;-73
2022/04/12 05:32:40;;;;;;;0.20;0.20;;;9.40;99.90;;;9.76;67.79;100338.38;5013319;28;20642;-73
2022/04/12 05:35:09;;;;;;;0.20;0.20;;;9.60;99.90;;;9.95;66.60;100336.06;5005240;28;20625;-73
2022/04/12 05:37:48;;;;;;;0.20;0.20;;;9.90;99.90;;;10.19;66.41;100343.88;5002682;28;20700;-74
2022/04/12 05:40:18;;;;;;;0.20;0.20;;;10.10;99.90;;;10.32;65.42;100339.41;4992210;28;20645;-74
2022/04/12 05:42:46;;;;;;;0.20;0.20;;;10.20;99.90;;;10.44;64.67;100348.91;4989680;28;20666;-73
2022/04/12 05:45:14;;;;;;;0.30;0.30;;;10.40;99.90;;;10.80;64.26;100356.53;4992253;28;20630;-73
2022/04/12 05:47:49;;;;;;;0.20;0.20;;;10.80;99.90;;;11.25;62.43;100352.13;5002616;28;20651;-73
2022/04/12 05:50:25;;;;;;;0.30;0.30;;;11.50;99.90;;;11.75;60.52;100357.72;4998247;28;20665;-73
2022/04/12 05:52:53;;;;;;;1.23;1.13;;;12.10;99.90;;;12.20;58.97;100352.16;4988649;28;20747;-72
2022/04/12 05:55:22;;;;;;;0.20;0.20;;;12.60;99.90;;;12.48;57.63;100352.50;5014946;28;20643;-71
2022/04/12 05:57:53;;;;;;;0.70;0.70;;;13.00;99.90;;;13.01;56.60;100356.63;5025342;28;20628;-72
2022/04/12 06:00:21;;;;;;;0.30;0.30;;;13.50;99.90;;;13.39;54.65;100346.28;5010675;28;20702;-72
2022/04/12 06:02:50;;;;;;;0.30;0.20;;;14.10;99.80;;;13.81;53.82;100350.34;4995578;28;20657;-72
2022/04/12 06:05:19;;;;;;;0.30;0.30;;;14.60;98.20;;;14.34;51.91;100355.16;4994894;28;21209;-70
2022/04/12 06:07:46;;;;;;;0.30;0.30;;;15.20;96.40;;;14.89;50.74;100356.09;4989832;28;20657;-73
2022/04/12 06:10:16;;;;;;;0.30;0.30;;;15.90;94.40;;;15.20;49.83;100358.34;5004994;28;20649;-73
2022/04/12 06:12:44;;;;;;;0.30;0.30;;;16.10;92.90;;;15.12;49.35;100358.22;5033919;23;20665;-72
2022/04/12 06:15:11;;;;;;;0.30;0.30;;;15.80;92.30;;;14.99;49.67;100355.09;5053767;23;20791;-69
2022/04/12 06:17:39;;;;;;;0.30;0.20;;;15.80;92.50;;;15.89;48.06;100355.13;5034653;28;20641;-66
2022/04/12 06:20:17;;;;;;;0.30;0.30;;;16.80;90.60;;;16.77;45.71;100353.19;5057669;28;20634;-66
2022/04/12 06:22:44;;;;;;;0.30;0.30;;;17.90;84.30;;;17.78;43.74;100349.63;5032176;28;20733;-68
2022/04/12 06:25:19;;;;;;;0.30;0.30;;;19.00;78.30;;;18.81;41.03;100354.16;5035826;28;20751;-68
2022/04/12 06:27:52;;;;;;;0.30;0.30;;;20.30;71.50;;;19.47;39.41;100359.88;5044371;28;20682;-67
2022/04/12 06:30:30;;;;;;;0.30;0.30;;;21.20;65.50;;;19.62;38.79;100363.44;5028715;28;20698;-68
2022/04/12 06:33:00;;;;;;;0.40;0.40;;;21.30;62.50;;;19.76;38.21;100357.38;5015363;28;21438;-67
2022/04/12 06:35:26;;;;;;;0.30;0.30;;;21.00;61.50;;;19.84;38.38;100354.69;5029272;28;20692;-68
2022/04/12 06:37:56;;;;;;;0.33;0.33;;;20.80;61.80;;;20.06;37.91;100361.78;5029929;28;20640;-67
2022/04/12 06:40:24;;;;;;;0.30;0.30;;;21.00;61.30;;;20.33;37.91;100367.56;5030518;28;20623;-68
2022/04/12 06:42:52;;;;;;;0.53;0.53;;;21.40;60.90;;;20.79;36.88;100361.13;5010130;28;20642;-68
2022/04/12 06:45:19;;;;;;;0.40;0.40;;;22.30;58.20;;;20.64;36.19;100361.13;5034646;28;20655;-68
2022/04/12 06:47:56;;;;;;;0.30;0.30;;;22.00;57.10;;;20.73;36.04;100361.88;5030449;28;21197;-67
2022/04/12 06:50:24;;;;;;;0.50;0.50;;;22.00;57.20;;;21.17;35.65;100370.66;5031262;28;20659;-67
2022/04/12 06:52:56;;;;;;;0.30;0.30;;;22.70;55.70;;;21.59;35.19;100373.41;5048466;28;20635;-68
2022/04/12 06:55:23;;;;;;;0.30;0.30;;;23.30;55.00;;;22.00;35.18;100368.38;5051329;28;21010;-68
2022/04/12 06:57:50;;;;;;;1.07;0.93;;;24.00;54.20;;;23.04;33.34;100371.00;5055014;28;20625;-69
2022/04/12 07:00:18;;;;;;;0.30;0.30;;;25.50;51.50;;;24.16;32.31;100369.56;5017197;28;21014;-69
2022/04/12 07:02:48;;;;;;;0.30;0.30;;;26.70;49.90;;;24.42;31.56;100374.09;5016186;28;20633;-69
2022/04/12 07:05:16;;;;;;;0.30;0.30;;;27.50;48.00;;;25.02;30.69;100376.47;5043066;28;21205;-68
2022/04/12 07:07:43;;;;;;;0.30;0.30;;;27.80;46.80;;;25.51;29.66;100367.06;5043545;28;20631;-68
2022/04/12 07:10:13;;;;;;;1.17;1.13;;;28.10;45.90;;;25.39;29.08;100378.38;5043813;28;20639;-69
2022/04/12 07:12:41;;;;;;;0.80;0.80;;;28.10;44.60;;;25.91;28.01;100380.00;5024227;28;20646;-68
2022/04/12 07:15:09;;;;;;;0.77;0.57;;;28.20;43.90;;;25.43;28.14;100384.16;5021759;28;20660;-69
2022/04/12 07:17:36;;;;;;;0.30;0.30;;;27.30;43.70;;;24.39;29.47;100377.97;5021710;28;20700;-68
2022/04/12 07:20:04;;;;;;;0.30;0.30;;;25.80;45.00;;;24.07;29.75;100376.13;5023777;28;20608;-69
2022/04/12 07:22:31;;;;;;;0.30;0.30;;;25.10;45.80;;;23.54;30.26;100376.97;5027655;28;20624;-68
2022/04/12 07:24:59;;;;;;;0.30;0.30;;;24.80;45.70;;;23.07;30.99;100383.09;5009057;28;20644;-69
2022/04/12 07:27:26;;;;;;;0.80;0.80;;;24.00;46.70;;;22.72;31.63;100378.81;5029925;28;20718;-69
2022/04/12 07:29:53;;;;;;;0.40;0.40;;;23.60;47.70;;;22.48;32.78;100380.03;5028763;28;21220;-69
2022/04/12 07:32:20;;;;;;;0.30;0.30;;;23.30;48.90;;;22.75;32.16;100367.75;5031844;28;21335;-69
2022/04/12 07:34:46;;;;;;;0.30;0.30;;;23.50;49.20;;;23.17;32.07;100364.13;5010231;28;20986;-69
2022/04/12 07:37:13;;;;;;;0.30;0.30;;;24.10;48.50;;;23.62;31.03;100371.47;5025902;28;20743;-66
2022/04/12 07:39:40;;;;;;;0.40;0.40;;;24.60;47.70;;;24.21;30.03;100371.63;5013905;28;21387;-68
2022/04/12 07:42:07;;;;;;;0.30;0.30;;;25.00;47.00;;;24.73;29.23;100366.25;5028526;28;20644;-68
2022/04/12 07:44:35;;;;;;;0.33;0.33;;;25.70;46.20;;;25.07;28.69;100373.16;5041463;28;20655;-67
2022/04/12 07:47:02;;;;;;;1.00;0.97;;;25.90;45.70;;;25.26;28.21;100366.94;5027247;28;20660;-67
2022/04/12 07:49:30;;;;;;;0.40;0.40;;;26.10;45.20;;;25.43;28.86;100367.31;5028597;28;20625;-67
2022/04/12 07:51:56;;;;;;;0.30;0.30;;;26.30;45.10;;;25.62;27.93;100361.84;5028906;28;21022;-67
2022/04/12 07:54:23;;;;;;;0.40;0.40;;;26.50;44.40;;;25.71;27.53;100357.91;5025272;28;20668;-68
2022/04/12 07:56:51;;;;;;;0.30;0.30;;;26.60;44.10;;;25.35;28.61;100355.81;5012039;28;21253;-68
2022/04/12 07:59:18;;;;;;;0.57;0.57;;;26.40;44.30;;;25.80;28.06;100361.16;5019923;28;20628;-67
2022/04/12 08:01:45;;;;;;;0.30;0.30;;;26.40;44.40;;;25.93;27.56;100356.53;5029785;28;20668;-68
2022/04/12 08:04:12;;;;;;;0.30;0.30;;;26.60;44.20;;;26.07;27.54;100360.75;5029280;28;20647;-65
2022/04/12 08:06:39;;;;;;;0.40;0.40;;;26.80;44.30;;;26.16;28.04;100361.34;5015784;28;20869;-68
2022/04/12 08:09:06;;;;;;;0.50;0.50;;;26.90;44.20;;;25.86;28.33;100365.63;5036589;28;20627;-68
2022/04/12 08:11:33;;;;;;;1.13;1.07;;;26.70;44.80;;;26.23;28.03;100361.28;5061465;28;20751;-68
2022/04/12 08:14:00;;;;;;;0.30;0.30;;;26.90;44.30;;;26.04;27.78;100358.53;5030378;28;20747;-67
2022/04/12 08:16:27;;;;;;;0.30;0.30;;;26.90;44.70;;;25.77;28.17;100364.25;5028797;28;20628;-68
2022/04/12 08:18:55;;;;;;;0.40;0.40;;;26.50;44.40;;;26.33;28.03;100361.59;5037388;28;20720;-68
2022/04/12 08:21:38;;;;;;;1.90;1.50;;;26.90;45.10;;;26.45;27.89;100357.97;5035202;28;20646;-67
2022/04/12 08:24:07;;;;;;;0.40;0.40;;;27.00;44.00;;;26.97;27.12;100359.34;5028071;28;20648;-68
2022/04/12 08:26:35;;;;;;;0.40;0.40;;;27.40;43.60;;;27.24;27.10;100374.06;5033703;28;21296;-68
2022/04/12 08:29:03;;;;;;;0.40;0.40;;;27.70;43.80;;;27.57;27.01;100368.31;5011444;28;20744;-68
2022/04/12 08:31:30;;;;;;;0.30;0.30;;;28.00;43.70;;;28.32;26.10;100369.50;5026028;28;21033;-68
2022/04/12 08:33:58;;;;;;;0.30;0.30;;;28.80;42.90;;;28.89;24.59;100379.44;5013284;28;21313;-68
2022/04/12 08:36:25;;;;;;;0.40;0.40;;;29.60;41.70;;;29.53;23.75;100381.06;5023011;28;20628;-68
2022/04/12 08:38:54;;;;;;;0.30;0.30;;;30.30;40.90;;;30.12;23.11;100379.72;5027321;28;20682;-69
2022/04/12 08:41:26;;;;;;;0.30;0.30;;;31.10;39.80;;;30.59;23.03;100375.66;5027961;28;20667;-66
2022/04/12 08:43:59;;;;;;;0.30;0.30;;;31.90;39.50;;;30.61;22.35;100375.41;5026277;28;20729;-68
2022/04/12 08:46:27;;;;;;;0.30;0.30;;;32.10;38.50;;;29.65;23.43;100367.53;5024276;28;20632;-68
2022/04/12 08:48:57;;;;;;;0.30;0.30;;;31.60;38.30;;;29.01;23.71;100364.09;5035741;28;21023;-68
2022/04/12 08:51:28;;;;;;;0.40;0.40;;;31.00;39.10;;;29.19;24.32;100354.28;5033386;28;20676;-68
2022/04/12 08:53:59;;;;;;;0.40;0.30;;;30.70;39.30;;;29.43;23.98;100348.59;5029094;28;20636;-68
2022/04/12 08:56:28;;;;;;;1.17;1.07;;;30.90;39.00;;;29.81;22.96;100353.38;5024258;28;20691;-68
2022/04/12 08:58:55;;;;;;;0.40;0.40;;;31.50;38.70;;;30.07;22.90;100349.25;4998470;28;20723;-68
2022/04/12 09:01:37;;;;;;;0.30;0.30;;;32.20;37.70;;;29.40;23.80;100350.94;5028283;28;21329;-68
2022/04/12 09:04:04;;;;;;;0.30;0.30;;;32.20;37.80;;;30.27;22.86;100349.53;5031635;28;20654;-69
2022/04/12 09:06:31;;;;;;;0.40;0.40;;;32.60;37.90;;;31.19;22.21;100353.31;5015406;28;20666;-68
2022/04/12 09:09:12;;;;;;;0.37;0.37;;;33.20;37.40;;;-141.50;100.00;62695.63;5036992;28;20632;-68
2022/04/12 09:11:43;;;;;;;0.30;0.30;;;34.10;36.70;;;-141.50;100.00;62695.63;5041617;28;20663;-68
2022/04/12 09:14:13;;;;;;;0.40;0.40;;;33.80;36.80;;;-141.50;100.00;62695.63;5031828;28;20710;-66
2022/04/12 09:16:44;;;;;;;0.30;0.30;;;33.70;36.80;;;-141.50;100.00;62695.63;5046395;28;20640;-68
2022/04/12 09:19:12;;;;;;;1.17;1.07;;;33.30;36.90;;;-141.50;100.00;62695.63;5030787;28;20632;-68
2022/04/12 09:21:48;;;;;;;0.30;0.30;;;32.80;37.20;;;-141.50;100.00;62695.63;5049527;28;20629;-68
2022/04/12 09:24:22;;;;;;;2.00;1.50;;;32.40;37.90;;;-141.50;100.00;62695.63;5031574;28;20659;-69
2022/04/12 09:26:57;;;;;;;1.23;1.13;;;32.30;38.10;;;-141.50;100.00;62695.63;5034418;28;20674;-68
2022/04/12 09:29:29;;;;;;;0.30;0.30;;;32.30;38.60;;;-141.50;100.00;62695.63;5033916;28;20815;-67
2022/04/12 09:31:59;;;;;;;0.30;0.30;;;33.10;37.50;;;-141.50;100.00;62695.63;5036663;28;21299;-68
2022/04/12 09:34:28;;;;;;;0.53;0.53;;;34.40;36.80;;;-141.50;100.00;62695.63;5031982;28;20667;-68
2022/04/12 09:37:48;;;;;;;0.30;0.30;;;36.10;36.10;;;-141.50;100.00;62695.63;5024615;28;20616;-68
2022/04/12 09:40:17;;;;;;;0.50;0.50;;;37.90;35.20;;;-141.50;100.00;62695.63;5026356;28;21248;-68
2022/04/12 09:42:53;;;;;;;0.40;0.40;;;39.60;33.70;;;-141.50;100.00;62695.63;5016228;28;21018;-69
2022/04/12 09:45:25;;;;;;;0.40;0.40;;;40.50;32.70;;;-141.50;100.00;62695.63;5031828;28;20759;-68
2022/04/12 09:48:04;;;;;;;0.50;0.50;;;41.50;32.40;;;-141.50;100.00;62695.63;5026077;28;21013;-69
2022/04/12 09:50:59;;;;;;;0.40;0.40;;;42.30;31.90;;;-141.50;100.00;62695.63;5039713;28;20615;-67
2022/04/12 09:53:41;;;;;;;0.47;0.47;;;43.00;31.30;;;-141.50;100.00;62695.63;5028358;28;20819;-69
2022/04/12 09:56:29;;;;;;;0.97;0.97;;;43.10;30.90;;;-141.50;100.00;62695.63;5029634;28;21271;-69
2022/04/12 09:58:59;;;;;;;0.60;0.60;;;43.60;30.70;;;-141.50;100.00;62695.63;5030264;28;20640;-69
2022/04/12 10:01:27;;;;;;;0.50;0.50;;;44.20;30.20;;;-141.50;100.00;62695.63;5048086;28;21038;-68
2022/04/12 10:03:57;;;;;;;0.50;0.50;;;44.20;30.10;;;-141.50;100.00;62695.63;5028931;28;20648;-69
2022/04/12 10:06:27;;;;;;;0.40;0.40;;;44.70;30.20;;;-141.50;100.00;62695.63;5022437;28;20641;-69
2022/04/12 10:09:02;;;;;;;0.40;0.40;;;45.10;30.00;;;-141.50;100.00;62695.63;5032156;28;21249;-69
2022/04/12 10:11:29;;;;;;;0.60;0.60;;;45.30;29.60;;;-141.50;100.00;62695.63;5031451;28;20738;-68
2022/04/12 10:14:01;;;;;;;0.60;0.60;;;45.20;30.00;;;-141.50;100.00;62695.63;5025840;28;20666;-70
2022/04/12 10:16:28;;;;;;;0.60;0.60;;;45.10;29.40;;;-141.50;100.00;62695.63;5033957;28;20629;-69
2022/04/12 10:18:58;;;;;;;0.40;0.40;;;44.80;29.40;;;-141.50;100.00;62695.63;5023687;28;20724;-67
2022/04/12 10:21:26;;;;;;;0.40;0.40;;;44.20;29.50;;;-141.50;100.00;62695.63;5015058;28;21190;-68
2022/04/12 10:23:59;;;;;;;1.13;1.13;;;43.40;29.80;;;-141.50;100.00;62695.63;5029245;28;20695;-69
2022/04/12 10:26:27;;;;;;;0.40;0.40;;;42.70;29.90;;;-141.50;100.00;62695.63;5009038;28;20640;-69
2022/04/12 10:29:00;;;;;;;0.60;0.60;;;42.30;30.00;;;-141.50;100.00;62695.63;5020610;28;21165;-68
2022/04/12 10:31:32;;;;;;;1.00;1.00;;;41.70;30.30;;;-141.50;100.00;62695.63;5031859;28;20755;-69